Have a Safe July 4th! 

Flight Track Log - Related Links

Times and Time Zones

All times are in EDT time to prevent confusion due to time zone crossing. See the GES61 flight status page for this flight to view local times or setup timezone preferences in your user account.

Time Position Orientation Groundspeed Altitude Reporting Facility
EDT Latitude Longitude Course Direction KTS MPH feet Rate Location/Type
Thu 07:09:31 PM 38.9833 -77.5333 314° West 230 265 3,000  Level Potomac TRACON
Thu 07:10:31 PM 39.0333 -77.6000 314° West 285 328 4,800 2,550 Climbing Potomac TRACON
Thu 07:11:31 PM 39.1000 -77.5500 30° Northeast 312 359 8,100 2,100 Climbing Potomac TRACON
Thu 07:12:31 PM 39.1500 -77.4500 57° Northeast 329 379 9,000 450 Climbing Potomac TRACON
Thu 07:13:31 PM 39.2000 -77.3500 57° Northeast 328 377 9,000 1,279 Level Potomac TRACON
Thu 07:15:48 PM 39.3061 -77.1044 61° Northeast 354 407 13,200 2,193 Climbing Washington Center
Thu 07:16:48 PM 39.3286 -76.9681 78° East 375 432 16,200 2,600 Climbing Washington Center
Thu 07:17:48 PM 39.3094 -76.8256 100° East 380 437 18,400 2,350 Climbing Washington Center
Thu 07:18:48 PM 39.2900 -76.6750 99° East 397 457 20,900 2,300 Climbing Washington Center
Thu 07:19:48 PM 39.2725 -76.5244 98° East 409 471 23,000 1,050 Climbing Washington Center
Thu 07:20:48 PM 39.2506 -76.3714 100° East 422 486 23,000  Level Washington Center
Thu 07:21:48 PM 39.2306 -76.2078 99° East 441 507 23,000  Level Washington Center
Thu 07:22:48 PM 39.2147 -76.0631 98° East 456 525 23,000 600 Level Washington Center
Thu 07:23:48 PM 39.2153 -75.8969 90° East 461 531 24,200 1,450 Climbing Washington Center
Thu 07:24:48 PM 39.2925 -75.7553 55° Northeast 448 516 25,900 2,250 Climbing Washington Center
Thu 07:25:48 PM 39.3864 -75.6292 46° Northeast 456 525 28,700 2,150 Climbing Washington Center
Thu 07:26:48 PM 39.4844 -75.5081 44° Northeast 467 537 30,200 1,450 Climbing Washington Center
Thu 07:27:48 PM 39.5822 -75.3761 46° Northeast 478 550 31,600 1,700 Climbing Washington Center
Thu 07:28:48 PM 39.6778 -75.2492 46° Northeast 486 559 33,600 2,438 Climbing Washington Center
Thu 07:29:24 PM 39.7400 -75.1633 47° Northeast 489 563 35,500 2,170 Climbing New York Center
Thu 07:30:22 PM 39.8194 -75.0439 49° Northeast 513 590 37,000 1,322 Climbing New York Center
Thu 07:31:22 PM 39.9094 -74.9167 47° Northeast 498 573 38,100 1,400 Climbing New York Center
Thu 07:32:22 PM 40.0125 -74.7711 47° Northeast 488 562 39,800 1,587 Climbing New York Center
Thu 07:33:23 PM 40.0892 -74.6589 48° Northeast 471 542 41,300 1,131 Climbing New York Center
Thu 07:34:24 PM 40.1692 -74.5003 57° Northeast 465 535 42,100 605 Climbing New York Center
Thu 07:35:22 PM 40.2092 -74.3531 70° East 465 535 42,500 342 Climbing New York Center
Thu 07:37:37 PM 40.3058 -73.9831 71° East 474 545 43,200 369 Climbing Boston Center
Thu 07:38:37 PM 40.3517 -73.8153 70° East 479 551 43,700 545 Climbing Boston Center
Thu 07:39:38 PM 40.3997 -73.6228 72° East 490 564 44,300 446 Climbing Boston Center
Thu 07:40:38 PM 40.4453 -73.4544 70° East 490 564 44,600 298 Climbing Boston Center
Thu 07:41:39 PM 40.4903 -73.2858 71° East 490 564 44,900 198 Climbing Boston Center
Thu 07:42:39 PM 40.5311 -73.1144 73° East 485 558 45,000 50 Climbing Boston Center
Thu 07:43:39 PM 40.5778 -72.9428 70° East 485 558 45,000  Level Boston Center
Thu 07:44:37 PM 40.6203 -72.7708 72° East 485 558 45,000  Level Boston Center
Thu 07:45:37 PM 40.6644 -72.5961 72° East 490 564 45,000  Level Boston Center
Thu 07:46:38 PM 40.7103 -72.4236 71° East 496 571 45,000  Level Boston Center
Thu 07:47:38 PM 40.7497 -72.2675 72° East 501 577 45,000  Level Boston Center
Thu 07:48:37 PM 40.7850 -72.1275 72° East 501 577 45,000  Level Boston Center
Thu 07:49:38 PM 40.8444 -71.9078 70° East 495 570 45,000  Level Boston Center
Thu 07:50:39 PM 40.8872 -71.7317 72° East 495 570 45,000  Level Boston Center
Thu 07:51:37 PM 40.9317 -71.5417 73° East 502 578 45,000  Level Boston Center
Thu 07:52:38 PM 40.9908 -71.3758 65° Northeast 508 585 45,000  Level Boston Center
Thu 07:53:39 PM 41.0517 -71.2208 62° Northeast 487 560 45,000  Level Boston Center
Thu 07:54:39 PM 41.1103 -71.0517 65° Northeast 487 560 45,000  Level Boston Center
Thu 07:55:39 PM 41.1683 -70.8767 66° East 492 566 45,000  Level Boston Center
Thu 07:56:50 PM 41.2264 -70.7097 65° Northeast 492 566 45,000  Level Boston Center
Thu 07:57:51 PM 41.2939 -70.5061 66° East 497 572 45,000  Level Boston Center
Thu 07:58:50 PM 41.3469 -70.3303 68° East 505 581 45,000  Level Boston Center
Thu 07:59:51 PM 41.4083 -70.1622 64° Northeast 505 581 45,000  Level Boston Center
Thu 08:00:51 PM 41.4653 -69.9911 66° East 505 581 45,000  Level Boston Center
Thu 08:01:50 PM 41.5178 -69.8228 67° East 505 581 45,000  Level Boston Center
Thu 08:02:50 PM 41.5644 -69.6878 65° Northeast 505 581 45,000  Level Boston Center
Thu 08:04:03 PM 41.6322 -69.4819 66° East 505 581 45,000  Level Boston Center
Thu 08:05:16 PM 41.7069 -69.2419 67° East 500 575 45,000  Level Boston Center
Thu 08:06:14 PM 41.7667 -69.0719 65° Northeast 500 575 45,000  Level Boston Center
Thu 08:07:14 PM 41.8122 -68.9219 68° East 495 570 45,000  Level Boston Center
Thu 08:08:14 PM 41.8672 -68.7542 66° East 484 557 45,000  Level Boston Center
Thu 08:08:57 PM 41.8833 -68.6333 80° East 490 564 45,000  Level Moncton Center
Thu 08:09:15 PM 41.9222 -68.5864 42° Northeast 484 557 45,000  Level Boston Center
Thu 08:10:27 PM 41.9744 -68.4128 68° East 489 563 45,000  Level Boston Center
Thu 08:11:26 PM 42.0378 -68.2072 67° East 489 563 45,000  Level Boston Center
Thu 08:12:26 PM 42.0919 -68.0386 67° East 489 563 45,000  Level Boston Center
Thu 08:13:27 PM 42.1472 -67.8581 68° East 484 557 45,000  Level Boston Center
Thu 08:13:57 PM 42.1667 -67.7500 76° East 490 564 45,000  Level Moncton Center
Thu 08:14:57 PM 42.2167 -67.5667 70° East 500 575 45,000  Level Moncton Center
Thu 08:15:57 PM 42.2667 -67.4167 66° East 490 564 45,000  Level Moncton Center
Thu 08:16:57 PM 42.3333 -67.2500 62° Northeast 500 575 45,000  Level Moncton Center
Thu 08:17:57 PM 42.3667 -67.0667 76° East 500 575 45,000  Level Moncton Center
Thu 08:18:57 PM 42.4167 -66.8833 70° East 500 575 45,000  Level Moncton Center
Thu 08:19:57 PM 42.4833 -66.7333 59° Northeast 500 575 45,000  Level Moncton Center
Thu 08:20:57 PM 42.5333 -66.5333 71° East 510 587 45,000  Level Moncton Center
Thu 08:21:57 PM 42.5833 -66.3667 68° East 510 587 45,000  Level Moncton Center
Thu 08:22:57 PM 42.6333 -66.1833 70° East 510 587 45,000  Level Moncton Center
Thu 08:23:57 PM 42.6833 -66.0167 68° East 500 575 45,000  Level Moncton Center
Thu 08:24:57 PM 42.7167 -65.8333 76° East 500 575 45,000  Level Moncton Center
Thu 08:25:57 PM 42.7833 -65.6500 64° Northeast 490 564 45,000  Level Moncton Center
Thu 08:26:57 PM 42.8333 -65.4833 68° East 500 575 45,000  Level Moncton Center
Thu 08:27:57 PM 42.8833 -65.3167 68° East 500 575 45,000  Level Moncton Center
Thu 08:28:57 PM 42.9333 -65.1333 70° East 500 575 45,000  Level Moncton Center
Thu 08:29:57 PM 42.9833 -64.9500 69° East 500 575 45,000  Level Moncton Center
Thu 08:30:57 PM 43.0333 -64.7667 69° East 510 587 45,000  Level Moncton Center
Thu 08:31:57 PM 43.0833 -64.5833 69° East 510 587 45,000  Level Moncton Center
Thu 08:32:57 PM 43.1333 -64.4000 69° East 510 587 45,000  Level Moncton Center
Thu 08:33:57 PM 43.1833 -64.2167 69° East 510 587 45,000  Level Moncton Center
Thu 08:34:57 PM 43.2167 -64.0333 76° East 520 598 45,000  Level Moncton Center
Thu 08:35:57 PM 43.2667 -63.8500 69° East 520 598 45,000  Level Moncton Center
Thu 08:36:57 PM 43.3167 -63.6667 69° East 510 587 45,000  Level Moncton Center
Thu 08:37:57 PM 43.3667 -63.4833 69° East 520 598 45,000  Level Moncton Center
Thu 08:38:57 PM 43.4167 -63.3000 69° East 520 598 45,000  Level Moncton Center
Thu 08:39:57 PM 43.4667 -63.0833 72° East 520 598 45,000  Level Moncton Center
Thu 08:40:20 PM 43.4833 -63.0333 65° Northeast 520 598 45,000  Level Gander Center
Thu 08:41:20 PM 43.5333 -62.8500 69° East 520 598 45,000  Level Gander Center
Thu 08:42:20 PM 43.5833 -62.6333 72° East 530 610 45,000  Level Gander Center
Thu 08:42:57 PM 43.6000 -62.5333 77° East 530 610 45,000  Level Moncton Center
Thu 08:44:20 PM 43.6667 -62.2500 72° East 530 610 45,000  Level Gander Center
Thu 08:44:57 PM 43.7000 -62.1500 65° Northeast 520 598 45,000  Level Moncton Center
Thu 08:45:20 PM 43.7167 -62.0667 75° East 530 610 45,000  Level Gander Center
Thu 08:46:20 PM 43.7667 -61.8833 69° East 530 610 45,000  Level Gander Center
Thu 08:47:20 PM 43.8167 -61.6667 72° East 530 610 45,000  Level Gander Center
Thu 08:47:57 PM 43.8333 -61.5667 77° East 530 610 45,000  Level Moncton Center
Thu 08:48:57 PM 43.9000 -61.3667 65° Northeast 530 610 45,000  Level Moncton Center
Thu 08:49:57 PM 43.9333 -61.1667 77° East 530 610 45,000  Level Moncton Center
Thu 08:50:57 PM 43.9833 -60.9667 71° East 530 610 45,000  Level Moncton Center
Thu 08:51:57 PM 44.0333 -60.7667 71° East 530 610 45,000  Level Moncton Center
Thu 08:52:57 PM 44.0667 -60.5833 76° East 540 621 45,000  Level Moncton Center
Thu 08:53:57 PM 44.1167 -60.3667 72° East 540 621 45,000  Level Moncton Center
Thu 08:54:20 PM 44.1333 -60.3000 71° East 540 621 45,000  Level Gander Center
Thu 08:54:57 PM 44.1500 -60.1833 79° East 540 621 45,000  Level Moncton Center
Thu 08:55:57 PM 44.2000 -59.9667 72° East 540 621 45,000  Level Moncton Center
Thu 08:56:57 PM 44.2333 -59.7833 76° East 540 621 45,000  Level Moncton Center
Thu 08:57:57 PM 44.3000 -59.5667 67° East 550 633 45,000  Level Moncton Center
Thu 08:58:57 PM 44.3333 -59.3667 77° East 540 621 45,000  Level Moncton Center
Thu 08:59:57 PM 44.3833 -59.1500 72° East 540 621 45,000  Level Moncton Center
Thu 09:00:57 PM 44.4167 -58.9667 76° East 550 633 45,000  Level Moncton Center
Thu 09:01:57 PM 44.4667 -58.7500 72° East 540 621 45,000  Level Moncton Center
Thu 09:02:21 PM 44.4833 -58.6667 74° East 550 633 45,000  Level Gander Center
Thu 09:03:21 PM 44.5167 -58.4833 76° East 550 633 45,000  Level Gander Center
Thu 09:04:21 PM 44.5667 -58.2833 71° East 550 633 45,000  Level Gander Center
Thu 09:05:21 PM 44.6167 -58.0667 72° East 540 621 45,000  Level Gander Center
Thu 09:06:21 PM 44.6333 -57.8667 83° East 540 621 45,000  Level Gander Center
Thu 09:06:57 PM 44.6667 -57.7333 71° East 540 621 45,000  Level Moncton Center
Thu 09:07:57 PM 44.7167 -57.5500 69° East 540 621 45,000  Level Moncton Center
Thu 09:08:21 PM 44.7333 -57.4500 77° East 540 621 45,000  Level Gander Center
Thu 09:09:21 PM 44.7667 -57.2500 77° East 530 610 45,000  Level Gander Center
Thu 09:10:21 PM 44.8167 -57.0500 71° East 540 621 45,000  Level Gander Center
Thu 09:10:57 PM 44.8333 -56.9167 80° East 530 610 45,000  Level Moncton Center
Thu 09:11:57 PM 44.8500 -56.7167 83° East 530 610 45,000  Level Moncton Center
Thu 09:12:21 PM 44.8833 -56.6500 55° Northeast 530 610 45,000  Level Gander Center
Thu 09:13:21 PM 44.9167 -56.4333 78° East 530 610 45,000  Level Gander Center
Thu 09:13:57 PM 44.9500 -56.3333 65° Northeast 530 610 45,000  Level Moncton Center
Thu 09:14:57 PM 44.9667 -56.1333 83° East 530 610 45,000  Level Moncton Center
Thu 09:15:57 PM 45.0167 -55.9167 72° East 530 610 45,000  Level Moncton Center
Thu 09:16:57 PM 45.0500 -55.7167 77° East 520 598 45,000  Level Moncton Center
Thu 09:17:57 PM 45.0833 -55.5333 75° East 520 598 45,000  Level Moncton Center
Thu 09:18:20 PM 45.0833 -55.4500 90° East 520 598 45,000  Level Gander Center
Thu 09:18:57 PM 45.1167 -55.3333 68° East 520 598 45,000  Level Moncton Center
Thu 09:19:57 PM 45.1500 -55.1333 77° East 510 587 45,000  Level Moncton Center
Thu 09:20:57 PM 45.1833 -54.9333 77° East 510 587 45,000  Level Moncton Center
Thu 09:21:43 PM 45.2167 -54.8000 70° East 510 587 45,000  Level Gander Center
Thu 09:22:43 PM 45.2500 -54.5667 78° East 520 598 45,000  Level Gander Center
Thu 09:23:43 PM 45.2833 -54.3833 75° East 520 598 45,000  Level Gander Center
Thu 09:24:43 PM 45.3333 -54.1833 70° East 510 587 45,000  Level Gander Center
Thu 09:25:20 PM 45.3333 -54.0667 90° East 520 598 45,000  Level Gander Center
Thu 09:25:57 PM 45.3667 -53.9500 68° East 520 598 45,000  Level Moncton Center
Thu 09:26:20 PM 45.3667 -53.8667 90° East 520 598 45,000  Level Gander Center
Thu 09:26:57 PM 45.4000 -53.7500 68° East 520 598 45,000  Level Moncton Center
Thu 09:27:43 PM 45.4167 -53.6000 81° East 520 598 45,000  Level Gander Center
Thu 09:28:43 PM 45.4667 -53.4000 70° East 520 598 45,000  Level Gander Center
Thu 09:29:43 PM 45.5000 -53.1833 78° East 520 598 45,000  Level Gander Center
Thu 09:30:20 PM 45.5167 -53.0833 77° East 510 587 45,000  Level Gander Center
Thu 09:30:57 PM 45.5333 -52.9500 80° East 510 587 45,000  Level Moncton Center
Thu 09:31:20 PM 45.5500 -52.8667 74° East 520 598 45,000  Level Gander Center
Thu 09:32:20 PM 45.5667 -52.6667 83° East 510 587 45,000  Level Gander Center
Thu 09:33:20 PM 45.6000 -52.4667 77° East 520 598 45,000  Level Gander Center
Thu 09:34:20 PM 45.6333 -52.2833 75° East 520 598 45,000  Level Gander Center
Thu 09:34:43 PM 45.6500 -52.2000 74° East 520 598 45,000  Level Gander Center
Thu 09:35:43 PM 45.6833 -52.0000 77° East 520 598 45,000  Level Gander Center
Thu 09:36:20 PM 45.7000 -51.8500 81° East 520 598 45,000  Level Gander Center
Thu 09:37:20 PM 45.7333 -51.6667 75° East 520 598 45,000  Level Gander Center
Thu 09:37:57 PM 45.7500 -51.5333 80° East 520 598 45,000  Level Moncton Center
Thu 09:38:57 PM 45.7833 -51.3667 74° East 520 598 45,000  Level Moncton Center
Thu 09:39:57 PM 45.8000 -51.1333 84° East 530 610 45,000  Level Moncton Center
Thu 09:40:20 PM 45.8333 -51.0333 64° Northeast 530 610 45,000  Level Gander Center
Thu 09:41:20 PM 45.8667 -50.8333 76° East 530 610 45,000  Level Gander Center
Thu 09:42:20 PM 45.8833 -50.6167 84° East 530 610 45,000  Level Gander Center
Thu 09:43:20 PM 45.9000 -50.4167 83° East 540 621 45,000  Level Gander Center
Thu 09:44:20 PM 45.9500 -50.2000 72° East 540 621 45,000  Level Gander Center
Thu 09:45:20 PM 45.9667 -50.0000 83° East 540 621 45,000  Level Gander Center
Thu 09:46:20 PM 46.0167 -49.8000 70° East 540 621 45,000  Level Gander Center
Thu 09:47:20 PM 46.0333 -49.5667 84° East 530 610 45,000  Level Gander Center
Thu 09:48:20 PM 46.0667 -49.3667 76° East 530 610 45,000  Level Gander Center
Thu 09:48:43 PM 46.0667 -49.3000 90° East 540 621 45,000  Level Gander Center
Thu 09:49:43 PM 46.1000 -49.1000 78° East 530 610 45,000  Level Gander Center
Thu 09:50:00 PM 46.0000 -50.0000 78° East 532 612 45,000  Level ETMS Enhanced Traffic Management System
Thu 09:50:43 PM 46.1333 -48.8667 78° East 540 621 45,000  Level Gander Center
Thu 09:51:20 PM 46.1500 -48.7500 78° East 540 621 45,000  Level Gander Center
Thu 09:52:20 PM 46.1667 -48.5167 84° East 550 633 45,000  Level Gander Center
Thu 09:52:43 PM 46.2000 -48.4500 54° Northeast 540 621 45,000  Level Gander Center
Thu 09:53:43 PM 46.2167 -48.2500 83° East 540 621 45,000  Level Gander Center
Thu 09:54:43 PM 46.2500 -48.0333 77° East 540 621 45,000  Level Gander Center
Thu 09:55:43 PM 46.2667 -47.8167 84° East 550 633 45,000  Level Gander Center
Thu 09:56:43 PM 46.3000 -47.6167 76° East 540 621 45,000  Level Gander Center
Thu 09:57:43 PM 46.3167 -47.3833 84° East 540 621 45,000  Level Gander Center
Thu 09:58:43 PM 46.3333 -47.1833 83° East 530 610 45,000  Level Gander Center
Thu 09:59:20 PM 46.3667 -47.0667 67° East 530 610 45,000  Level Gander Center
Thu 10:00:20 PM 46.3833 -46.8500 84° East 530 610 45,000  Level Gander Center
Thu 10:02:00 PM 46.4230 -46.5180 80° East  Level FlightAware Approximate
Thu 10:09:00 PM 46.5793 -45.1185 80° East  Level FlightAware Approximate
Thu 10:10:00 PM 46.6003 -44.9179 81° East  Level FlightAware Approximate
Thu 10:11:00 PM 46.6208 -44.7172 81° East  Level FlightAware Approximate
Thu 10:12:00 PM 46.6411 -44.5163 82° East  Level FlightAware Approximate
Thu 10:13:00 PM 46.6609 -44.3153 82° East  Level FlightAware Approximate
Thu 10:14:00 PM 46.6805 -44.1141 82° East  Level FlightAware Approximate
Thu 10:15:00 PM 46.6996 -43.9128 82° East  Level FlightAware Approximate
Thu 10:16:00 PM 46.7184 -43.7113 82° East  Level FlightAware Approximate
Thu 10:17:00 PM 46.7369 -43.5097 82° East  Level FlightAware Approximate
Thu 10:18:00 PM 46.7550 -43.3080 82° East  Level FlightAware Approximate
Thu 10:19:00 PM 46.7728 -43.1061 83° East  Level FlightAware Approximate
Thu 10:20:00 PM 46.7902 -42.9041 83° East  Level FlightAware Approximate
Thu 10:21:00 PM 46.8072 -42.7020 83° East  Level FlightAware Approximate
Thu 10:22:00 PM 46.8239 -42.4997 83° East  Level FlightAware Approximate
Thu 10:23:00 PM 46.8402 -42.2974 83° East  Level FlightAware Approximate
Thu 10:24:00 PM 46.8562 -42.0948 83° East  Level FlightAware Approximate
Thu 10:25:00 PM 46.8718 -41.8922 83° East  Level FlightAware Approximate
Thu 10:26:00 PM 46.8871 -41.6895 84° East  Level FlightAware Approximate
Thu 10:27:00 PM 46.9020 -41.4866 84° East  Level FlightAware Approximate
Thu 10:28:00 PM 46.9165 -41.2837 84° East  Level FlightAware Approximate
Thu 10:29:00 PM 46.9307 -41.0806 84° East  Level FlightAware Approximate
Thu 10:30:00 PM 46.9445 -40.8774 84° East  Level FlightAware Approximate
Thu 10:31:00 PM 46.9580 -40.6741 84° East  Level FlightAware Approximate
Thu 10:32:00 PM 46.9711 -40.4708 85° East  Level FlightAware Approximate
Thu 10:33:00 PM 46.9838 -40.2673 85° East  Level FlightAware Approximate
Thu 10:34:00 PM 46.9962 -40.0637 85° East  Level FlightAware Approximate
Thu 10:35:00 PM 47.0058 -39.8599 86° East  Level FlightAware Approximate
Thu 10:35:00 PM 47.0000 -40.0000 86° East 522 601 45,000  Level ETMS Enhanced Traffic Management System
Thu 10:36:00 PM 47.0139 -39.6557 87° East  Level FlightAware Approximate
Thu 10:37:00 PM 47.0216 -39.4515 87° East  Level FlightAware Approximate
Thu 10:38:00 PM 47.0290 -39.2473 87° East  Level FlightAware Approximate
Thu 10:39:00 PM 47.0360 -39.0430 87° East  Level FlightAware Approximate
Thu 10:40:00 PM 47.0427 -38.8387 87° East  Level FlightAware Approximate
Thu 10:41:00 PM 47.0674 -38.0877 88° East 522 601 45,000  Level FlightAware Transoceanic
Thu 10:42:00 PM 47.0730 -37.8750 88° East 522 601 45,000  Level FlightAware Transoceanic
Thu 10:43:00 PM 47.0781 -37.6622 88° East 522 601 45,000  Level FlightAware Transoceanic
Thu 10:44:00 PM 47.0828 -37.4493 88° East 522 601 45,000  Level FlightAware Transoceanic
Thu 10:45:00 PM 47.0872 -37.2365 88° East 522 601 45,000  Level FlightAware Transoceanic
Thu 10:46:00 PM 47.0911 -37.0236 89° East 522 601 45,000  Level FlightAware Transoceanic
Thu 10:47:00 PM 47.0947 -36.8106 89° East 522 601 45,000  Level FlightAware Transoceanic
Thu 10:48:00 PM 47.0978 -36.5977 89° East 522 601 45,000  Level FlightAware Transoceanic
Thu 10:49:00 PM 47.1006 -36.3847 89° East 522 601 45,000  Level FlightAware Transoceanic
Thu 10:50:00 PM 47.1030 -36.1717 89° East 522 601 45,000  Level FlightAware Transoceanic
Thu 10:51:00 PM 47.1049 -35.9587 89° East 522 601 45,000  Level FlightAware Transoceanic
Thu 10:52:00 PM 47.1065 -35.7457 89° East 522 601 45,000  Level FlightAware Transoceanic
Thu 10:53:00 PM 47.1077 -35.5326 90° East 522 601 45,000  Level FlightAware Transoceanic
Thu 10:54:00 PM 47.1085 -35.3196 90° East 522 601 45,000  Level FlightAware Transoceanic
Thu 10:55:00 PM 47.1089 -35.1065 90° East 522 601 45,000  Level FlightAware Transoceanic
Thu 10:56:00 PM 47.1089 -34.8935 90° East 522 601 45,000  Level FlightAware Transoceanic
Thu 10:57:00 PM 47.1085 -34.6804 90° East 522 601 45,000  Level FlightAware Transoceanic
Thu 10:58:00 PM 47.1077 -34.4674 90° East 522 601 45,000  Level FlightAware Transoceanic
Thu 10:59:00 PM 47.1065 -34.2543 91° East 522 601 45,000  Level FlightAware Transoceanic
Thu 11:00:00 PM 47.1049 -34.0413 91° East 522 601 45,000  Level FlightAware Transoceanic
Thu 11:01:00 PM 47.1030 -33.8283 91° East 522 601 45,000  Level FlightAware Transoceanic
Thu 11:02:00 PM 47.1006 -33.6153 91° East 522 601 45,000  Level FlightAware Transoceanic
Thu 11:03:00 PM 47.0978 -33.4023 91° East 522 601 45,000  Level FlightAware Transoceanic
Thu 11:04:00 PM 47.0947 -33.1894 91° East 522 601 45,000  Level FlightAware Transoceanic
Thu 11:05:00 PM 47.0911 -32.9764 91° East 522 601 45,000  Level FlightAware Transoceanic
Thu 11:06:00 PM 47.0872 -32.7635 92° East 522 601 45,000  Level FlightAware Transoceanic
Thu 11:07:00 PM 47.0828 -32.5507 92° East 522 601 45,000  Level FlightAware Transoceanic
Thu 11:08:00 PM 47.0781 -32.3378 92° East 522 601 45,000  Level FlightAware Transoceanic
Thu 11:09:00 PM 47.0730 -32.1250 92° East 522 601 45,000  Level FlightAware Transoceanic
Thu 11:10:00 PM 47.0674 -31.9123 92° East 522 601 45,000  Level FlightAware Transoceanic
Thu 11:11:00 PM 47.0615 -31.6996 92° East 522 601 45,000  Level FlightAware Transoceanic
Thu 11:12:00 PM 47.0552 -31.4869 93° East 522 601 45,000  Level FlightAware Transoceanic
Thu 11:13:00 PM 47.0485 -31.2743 93° East 522 601 45,000  Level FlightAware Transoceanic
Thu 11:14:00 PM 47.0414 -31.0618 93° East 522 601 45,000  Level FlightAware Transoceanic
Thu 11:15:00 PM 47.0339 -30.8493 93° East 522 601 45,000  Level FlightAware Transoceanic
Thu 11:16:00 PM 47.0260 -30.6369 93° East 522 601 45,000  Level FlightAware Transoceanic
Thu 11:17:00 PM 47.0177 -30.4245 93° East 522 601 45,000  Level FlightAware Transoceanic
Thu 11:18:00 PM 47.0091 -30.2122 94° East 522 601 45,000  Level FlightAware Transoceanic
Thu 11:19:00 PM 47.0004 -30.0082 94° East  Level FlightAware Approximate
Thu 11:20:00 PM 46.9912 -29.8042 94° East  Level FlightAware Approximate
Thu 11:21:00 PM 46.9895 -29.8126 95° East  Level FlightAware Approximate
Thu 11:22:00 PM 46.9778 -29.6090 95° East  Level FlightAware Approximate
Thu 11:23:00 PM 46.9657 -29.4054 95° East  Level FlightAware Approximate
Thu 11:24:00 PM 46.9533 -29.2020 95° East  Level FlightAware Approximate
Thu 11:24:42 PM 47.0000 -30.0000 95° East 532 612 45,000  Level ETMS Enhanced Traffic Management System
Thu 11:25:00 PM 46.9404 -28.9986 95° East  Level FlightAware Approximate
Thu 11:26:00 PM 46.9273 -28.7953 95° East  Level FlightAware Approximate
Thu 11:27:00 PM 46.9137 -28.5922 95° East  Level FlightAware Approximate
Thu 11:28:00 PM 46.8999 -28.3891 96° East  Level FlightAware Approximate
Thu 11:29:00 PM 46.8856 -28.1862 96° East  Level FlightAware Approximate
Thu 11:30:00 PM 46.8281 -27.4141 97° East 532 612 45,000  Level FlightAware Transoceanic
Thu 11:31:00 PM 46.8111 -27.1994 97° East 532 612 45,000  Level FlightAware Transoceanic
Thu 11:32:00 PM 46.7938 -26.9848 97° East 532 612 45,000  Level FlightAware Transoceanic
Thu 11:33:00 PM 46.7760 -26.7704 97° East 532 612 45,000  Level FlightAware Transoceanic
Thu 11:34:00 PM 46.7579 -26.5561 97° East 532 612 45,000  Level FlightAware Transoceanic
Thu 11:35:00 PM 46.7393 -26.3420 97° East 532 612 45,000  Level FlightAware Transoceanic
Thu 11:36:00 PM 46.7204 -26.1280 97° East 532 612 45,000  Level FlightAware Transoceanic
Thu 11:37:00 PM 46.7010 -25.9142 98° East 532 612 45,000  Level FlightAware Transoceanic
Thu 11:38:00 PM 46.6813 -25.7005 98° East 532 612 45,000  Level FlightAware Transoceanic
Thu 11:39:00 PM 46.6612 -25.4870 98° East 532 612 45,000  Level FlightAware Transoceanic
Thu 11:40:00 PM 46.6406 -25.2736 98° East 532 612 45,000  Level FlightAware Transoceanic
Thu 11:41:00 PM 46.6197 -25.0604 98° East 532 612 45,000  Level FlightAware Transoceanic
Thu 11:42:00 PM 46.5983 -24.8474 98° East 532 612 45,000  Level FlightAware Transoceanic
Thu 11:43:00 PM 46.5766 -24.6346 99° East 532 612 45,000  Level FlightAware Transoceanic
Thu 11:44:00 PM 46.5545 -24.4219 99° East 532 612 45,000  Level FlightAware Transoceanic
Thu 11:45:00 PM 46.5320 -24.2094 99° East 532 612 45,000  Level FlightAware Transoceanic
Thu 11:46:00 PM 46.5091 -23.9970 99° East 532 612 45,000  Level FlightAware Transoceanic
Thu 11:47:00 PM 46.4858 -23.7849 99° East 532 612 45,000  Level FlightAware Transoceanic
Thu 11:48:00 PM 46.4621 -23.5729 99° East 532 612 45,000  Level FlightAware Transoceanic
Thu 11:49:00 PM 46.4380 -23.3611 99° East 532 612 45,000  Level FlightAware Transoceanic
Thu 11:50:00 PM 46.4135 -23.1495 100° East 532 612 45,000  Level FlightAware Transoceanic
Thu 11:51:00 PM 46.3886 -22.9381 100° East 532 612 45,000  Level FlightAware Transoceanic
Thu 11:52:00 PM 46.3634 -22.7269 100° East 532 612 45,000  Level FlightAware Transoceanic
Thu 11:53:00 PM 46.3377 -22.5159 100° East 532 612 45,000  Level FlightAware Transoceanic
Thu 11:54:00 PM 46.3117 -22.3051 100° East 532 612 45,000  Level FlightAware Transoceanic
Thu 11:55:00 PM 46.2853 -22.0945 100° East 532 612 45,000  Level FlightAware Transoceanic
Thu 11:56:00 PM 46.2585 -21.8841 101° East 532 612 45,000  Level FlightAware Transoceanic
Thu 11:57:00 PM 46.2313 -21.6738 101° East 532 612 45,000  Level FlightAware Transoceanic
Thu 11:58:00 PM 46.2037 -21.4639 101° East 532 612 45,000  Level FlightAware Transoceanic
Thu 11:59:00 PM 46.1758 -21.2541 101° East 532 612 45,000  Level FlightAware Transoceanic
Fri 12:00:00 AM 46.1474 -21.0445 101° East 532 612 45,000  Level FlightAware Transoceanic
Fri 12:01:00 AM 46.1187 -20.8352 101° East 532 612 45,000  Level FlightAware Transoceanic
Fri 12:02:00 AM 46.0896 -20.6260 101° East 532 612 45,000  Level FlightAware Transoceanic
Fri 12:03:00 AM 46.0601 -20.4171 102° East 532 612 45,000  Level FlightAware Transoceanic
Fri 12:04:00 AM 46.0303 -20.2085 102° East 532 612 45,000  Level FlightAware Transoceanic
Fri 12:05:00 AM 46.0017 -20.0119 102° East  Level FlightAware Approximate
Fri 12:06:00 AM 45.9729 -19.8156 102° East  Level FlightAware Approximate
Fri 12:07:00 AM 45.9692 -19.8294 104° East  Level FlightAware Approximate
Fri 12:08:00 AM 45.9339 -19.6354 105° East  Level FlightAware Approximate
Fri 12:09:00 AM 45.8983 -19.4417 105° East  Level FlightAware Approximate
Fri 12:10:00 AM 45.8623 -19.2482 105° East  Level FlightAware Approximate
Fri 12:11:00 AM 45.8260 -19.0550 105° East  Level FlightAware Approximate
Fri 12:12:00 AM 45.7893 -18.8620 105° East  Level FlightAware Approximate
Fri 12:13:00 AM 45.7524 -18.6693 105° East  Level FlightAware Approximate
Fri 12:14:00 AM 45.7151 -18.4768 105° East  Level FlightAware Approximate
Fri 12:15:00 AM 45.6775 -18.2846 106° East  Level FlightAware Approximate
Fri 12:16:00 AM 45.6395 -18.0926 106° East  Level FlightAware Approximate
Fri 12:17:00 AM 45.6013 -17.9010 106° East  Level FlightAware Approximate
Fri 12:18:00 AM 45.5627 -17.7095 106° East  Level FlightAware Approximate
Fri 12:19:00 AM 45.5238 -17.5184 106° East  Level FlightAware Approximate
Fri 12:20:00 AM 45.4848 -17.3274 106° East  Level FlightAware Approximate
Fri 12:21:00 AM 45.4455 -17.1367 106° East  Level FlightAware Approximate
Fri 12:22:00 AM 45.4059 -16.9462 106° East  Level FlightAware Approximate
Fri 12:23:00 AM 45.3660 -16.7560 107° East  Level FlightAware Approximate
Fri 12:24:00 AM 45.3258 -16.5661 107° East  Level FlightAware Approximate
Fri 12:25:00 AM 45.2852 -16.3764 107° East  Level FlightAware Approximate
Fri 12:26:00 AM 45.2444 -16.1870 107° East  Level FlightAware Approximate
Fri 12:27:00 AM 45.2032 -15.9979 107° East  Level FlightAware Approximate
Fri 12:28:00 AM 45.1617 -15.8091 107° East  Level FlightAware Approximate
Fri 12:29:00 AM 45.1199 -15.6205 107° East  Level FlightAware Approximate
Fri 12:30:00 AM 45.0778 -15.4323 108° East  Level FlightAware Approximate
Fri 12:31:00 AM 45.0354 -15.2443 108° East  Level FlightAware Approximate
Fri 12:32:00 AM 44.9926 -15.0565 108° East  Level FlightAware Approximate
Fri 12:33:00 AM 44.9496 -14.8691 108° East  Level FlightAware Approximate
Fri 12:34:00 AM 44.9063 -14.6819 108° East  Level FlightAware Approximate
Fri 12:35:00 AM 44.8626 -14.4951 108° East  Level FlightAware Approximate
Fri 12:36:00 AM 44.8187 -14.3084 108° East  Level FlightAware Approximate
Fri 12:37:00 AM 44.7744 -14.1221 108° East  Level FlightAware Approximate
Fri 12:38:00 AM 44.7299 -13.9361 109° East  Level FlightAware Approximate
Fri 12:39:00 AM 44.6850 -13.7504 109° East  Level FlightAware Approximate
Fri 12:40:00 AM 44.6399 -13.5649 109° East  Level FlightAware Approximate
Fri 12:41:00 AM 44.5944 -13.3798 109° East  Level FlightAware Approximate
Fri 12:42:00 AM 44.5486 -13.1949 109° East  Level FlightAware Approximate
Fri 12:43:00 AM 44.5026 -13.0103 109° East  Level FlightAware Approximate
Fri 12:44:00 AM 44.4465 -12.8315 114° Southeast  Level FlightAware Approximate
Fri 12:45:00 AM 44.3895 -12.6534 114° Southeast  Level FlightAware Approximate
Fri 12:46:00 AM 44.3322 -12.4756 114° Southeast  Level FlightAware Approximate
Fri 12:47:00 AM 44.2747 -12.2982 114° Southeast  Level FlightAware Approximate
Fri 12:48:00 AM 44.2169 -12.1210 114° Southeast  Level FlightAware Approximate
Fri 12:49:00 AM 44.1588 -11.9443 115° Southeast  Level FlightAware Approximate
Fri 12:50:00 AM 44.1004 -11.7679 115° Southeast  Level FlightAware Approximate
Fri 12:51:00 AM 44.0418 -11.5919 115° Southeast  Level FlightAware Approximate
Fri 12:52:00 AM 43.9829 -11.4162 115° Southeast  Level FlightAware Approximate
Fri 12:53:00 AM 43.9237 -11.2408 115° Southeast  Level FlightAware Approximate
Fri 12:54:00 AM 43.8643 -11.0658 115° Southeast  Level FlightAware Approximate
Fri 12:55:00 AM 43.8046 -10.8911 115° Southeast  Level FlightAware Approximate
Fri 12:56:00 AM 43.7446 -10.7168 115° Southeast  Level FlightAware Approximate
Fri 12:57:00 AM 43.6844 -10.5428 116° Southeast  Level FlightAware Approximate
Fri 12:58:00 AM 43.6239 -10.3692 116° Southeast  Level FlightAware Approximate
Fri 12:59:00 AM 43.5631 -10.1960 116° Southeast  Level FlightAware Approximate
Fri 01:00:00 AM 43.5021 -10.0231 116° Southeast  Level FlightAware Approximate
Fri 01:01:00 AM 43.4408 -9.8505 116° Southeast  Level FlightAware Approximate
Fri 01:02:00 AM 43.3793 -9.6783 116° Southeast  Level FlightAware Approximate
Fri 01:03:00 AM 43.3175 -9.5064 116° Southeast  Level FlightAware Approximate
Fri 01:04:00 AM 43.2555 -9.3349 116° Southeast  Level FlightAware Approximate
Fri 01:05:00 AM 43.1931 -9.1638 116° Southeast  Level FlightAware Approximate
Fri 01:06:00 AM 43.1306 -8.9930 117° Southeast  Level FlightAware Approximate
Fri 01:07:00 AM 43.0678 -8.8225 117° Southeast  Level FlightAware Approximate
Fri 01:08:00 AM 43.0047 -8.6524 117° Southeast  Level FlightAware Approximate
Fri 01:09:00 AM 42.9414 -8.4826 117° Southeast  Level FlightAware Approximate
Fri 01:10:00 AM 42.8712 -8.3184 122° Southeast  Level FlightAware Approximate
Fri 01:11:00 AM 42.7966 -8.1578 122° Southeast  Level FlightAware Approximate
Fri 01:12:00 AM 42.7217 -7.9976 122° Southeast  Level FlightAware Approximate
Fri 01:13:00 AM 42.6466 -7.8378 123° Southeast  Level FlightAware Approximate
Fri 01:14:00 AM 42.5714 -7.6784 123° Southeast  Level FlightAware Approximate
Fri 01:15:00 AM 42.4958 -7.5193 123° Southeast  Level FlightAware Approximate
Fri 01:16:00 AM 42.4201 -7.3607 123° Southeast  Level FlightAware Approximate
Fri 01:17:00 AM 42.3441 -7.2024 123° Southeast  Level FlightAware Approximate
Fri 01:18:00 AM 42.2680 -7.0445 123° Southeast  Level FlightAware Approximate
Fri 01:19:00 AM 42.1916 -6.8870 123° Southeast  Level FlightAware Approximate
Fri 01:20:00 AM 42.1150 -6.7298 122° Southeast  Level FlightAware Approximate
Fri 01:21:00 AM 42.0405 -6.5711 122° Southeast  Level FlightAware Approximate
Fri 01:22:00 AM 41.9600 -6.4189 135° Southeast  Level FlightAware Approximate
Fri 01:23:00 AM 41.8786 -6.2680 122° Southeast  Level FlightAware Approximate
Fri 01:24:00 AM 41.8035 -6.1103 123° Southeast  Level FlightAware Approximate
Fri 01:25:00 AM 41.7257 -5.9552 125° Southeast  Level FlightAware Approximate
Fri 01:26:00 AM 41.6454 -5.8026 125° Southeast  Level FlightAware Approximate
Fri 01:27:00 AM 41.5612 -5.6556 124° Southeast  Level FlightAware Approximate
Fri 01:28:00 AM 41.4838 -5.5007 124° Southeast  Level FlightAware Approximate
Fri 01:29:00 AM 41.4064 -5.3460 124° Southeast  Level FlightAware Approximate
Fri 01:30:00 AM 41.3292 -5.1913 124° Southeast  Level FlightAware Approximate
Fri 01:31:00 AM 41.2518 -5.0370 124° Southeast  Level FlightAware Approximate
Fri 01:32:00 AM 41.1721 -4.8849 125° Southeast  Level FlightAware Approximate
Fri 01:33:00 AM 41.0921 -4.7333 125° Southeast  Level FlightAware Approximate
Fri 01:34:00 AM 41.0149 -4.5794 123° Southeast  Level FlightAware Approximate
Fri 01:35:00 AM 40.9378 -4.4255 124° Southeast  Level FlightAware Approximate
Fri 01:36:00 AM 40.8565 -4.2757 126° Southeast  Level FlightAware Approximate
Fri 01:37:00 AM 40.7733 -4.1280 127° Southeast  Level FlightAware Approximate
Fri 01:38:00 AM 40.6902 -3.9803 123° Southeast  Level FlightAware Approximate
Fri 01:39:00 AM 40.6188 -3.8230 114° Southeast  Level FlightAware Approximate
Fri 01:40:00 AM 40.5373 -3.6745 123° Southeast  Level FlightAware Approximate
Fri 01:41:00 AM 40.4936 -3.5668 128° Southeast  Level Estimated
Fri 01:42:00 AM 40.4936 -3.5668 128° Southeast  Level Estimated
Fri 01:43:00 AM 40.4936 -3.5668 128° Southeast  Level Estimated
Fri 01:44:00 AM 40.4936 -3.5668 128° Southeast  Level Estimated
Fri 01:45:00 AM 40.4936 -3.5668 128° Southeast  Level Estimated
Fri 01:46:00 AM 40.4936 -3.5668 128° Southeast  Level Estimated
Fri 01:47:00 AM 40.4936 -3.5668 128° Southeast  Level Estimated
Fri 01:48:00 AM 40.4936 -3.5668 128° Southeast  Level Estimated
Fri 01:49:00 AM 40.4936 -3.5668 128° Southeast  Level Estimated
Fri 01:50:00 AM 40.4936 -3.5668 128° Southeast  Level Estimated
Fri 01:51:00 AM 40.4936 -3.5668 128° Southeast  Level Estimated
Fri 01:52:00 AM 40.4936 -3.5668 128° Southeast  Level Estimated
Fri 01:53:00 AM 40.4936 -3.5668 128° Southeast  Level Estimated
Fri 01:54:00 AM 40.4936 -3.5668 128° Southeast  Level Estimated
Fri 01:55:00 AM 40.4936 -3.5668 128° Southeast  Level Estimated
Fri 01:56:00 AM 40.4936 -3.5668 128° Southeast  Level Estimated
Fri 01:57:00 AM 40.4936 -3.5668 128° Southeast  Level Estimated
Fri 01:58:00 AM 40.4936 -3.5668 128° Southeast  Level Estimated
Fri 01:59:00 AM 40.4936 -3.5668 128° Southeast  Level Estimated
Fri 02:00:00 AM 40.4936 -3.5668 128° Southeast  Level Estimated
Fri 02:01:00 AM 40.4936 -3.5668 128° Southeast  Level Estimated
Fri 02:02:00 AM 40.4936 -3.5668 128° Southeast  Level Estimated
Fri 02:03:00 AM 40.4936 -3.5668 128° Southeast  Level Estimated

Login

Don't have an account? Register now (free) for customized features, flight alerts, and more!